createdAt,value
2022-10-31T00:01:33.212Z,11.13
2022-10-31T00:04:00.955Z,10.95
2022-10-31T00:06:28.740Z,10.38
2022-10-31T00:09:01.236Z,9.93
2022-10-31T00:11:29.522Z,9.80
2022-10-31T00:13:58.890Z,9.68
2022-10-31T00:16:27.128Z,9.43
2022-10-31T00:18:56.868Z,9.82
2022-10-31T00:21:25.486Z,10.48
2022-10-31T00:23:53.042Z,10.30
2022-10-31T00:26:21.093Z,10.43
2022-10-31T00:28:49.059Z,8.93
2022-10-31T00:31:16.738Z,9.65
2022-10-31T00:33:45.176Z,10.52
2022-10-31T00:36:18.099Z,10.00
2022-10-31T00:38:46.782Z,9.50
2022-10-31T00:41:15.959Z,10.43
2022-10-31T00:43:44.128Z,10.60
2022-10-31T00:46:12.625Z,10.70
2022-10-31T00:48:40.172Z,10.13
2022-10-31T00:51:08.301Z,10.05
2022-10-31T00:53:35.924Z,9.40
2022-10-31T00:56:04.358Z,9.80
2022-10-31T00:58:31.630Z,9.88
2022-10-31T01:00:59.052Z,10.20
2022-10-31T01:03:29.086Z,9.65
2022-10-31T01:06:08.090Z,9.65
2022-10-31T01:08:37.313Z,10.05
2022-10-31T01:11:07.837Z,9.35
2022-10-31T01:13:35.845Z,9.38
2022-10-31T01:16:04.873Z,9.90
2022-10-31T01:18:34.473Z,9.85
2022-10-31T01:21:10.821Z,9.50
2022-10-31T01:23:38.802Z,10.05
2022-10-31T01:26:17.884Z,10.02
2022-10-31T01:28:56.368Z,9.93
2022-10-31T01:31:26.657Z,10.45
2022-10-31T01:33:54.937Z,10.15
2022-10-31T01:36:25.013Z,10.48
2022-10-31T01:38:54.386Z,10.25
2022-10-31T01:41:25.103Z,10.60
2022-10-31T01:44:03.322Z,10.18
2022-10-31T01:46:33.629Z,10.43
2022-10-31T01:49:05.472Z,9.73
2022-10-31T01:51:39.687Z,10.38
2022-10-31T01:54:13.222Z,10.57
2022-10-31T01:56:43.424Z,11.10
2022-10-31T01:59:17.545Z,10.60
2022-10-31T02:01:44.996Z,11.43
2022-10-31T02:04:12.982Z,11.27
2022-10-31T02:06:48.170Z,11.95
2022-10-31T02:09:16.060Z,11.43
2022-10-31T02:11:45.380Z,11.63
2022-10-31T02:14:13.835Z,10.98
2022-10-31T02:16:42.331Z,11.15
2022-10-31T02:19:14.846Z,10.23
2022-10-31T02:21:55.707Z,9.65
2022-10-31T02:25:02.638Z,10.90
2022-10-31T02:27:55.249Z,10.40
2022-10-31T02:30:25.181Z,9.85
2022-10-31T02:33:06.640Z,9.90
2022-10-31T02:36:07.154Z,10.20
2022-10-31T02:38:57.089Z,10.98
2022-10-31T02:41:47.178Z,9.93
2022-10-31T02:44:35.720Z,9.68
2022-10-31T02:47:09.572Z,9.63
2022-10-31T02:49:44.119Z,10.40
2022-10-31T02:52:24.200Z,10.23
2022-10-31T02:54:51.865Z,9.70
2022-10-31T02:57:26.467Z,9.63
2022-10-31T03:00:04.723Z,10.52
2022-10-31T03:02:50.750Z,9.95
2022-10-31T03:05:28.614Z,9.77
2022-10-31T03:08:17.361Z,10.25
2022-10-31T03:10:56.995Z,10.23
2022-10-31T03:13:43.405Z,9.88
2022-10-31T03:16:27.742Z,10.02
2022-10-31T03:19:07.671Z,10.63
2022-10-31T03:21:51.698Z,10.18
2022-10-31T03:24:21.955Z,10.55
2022-10-31T03:26:54.133Z,9.82
2022-10-31T03:29:26.017Z,10.63
2022-10-31T03:32:07.556Z,10.75
2022-10-31T03:34:38.570Z,10.82
2022-10-31T03:37:08.685Z,10.20
2022-10-31T03:39:39.905Z,10.27
2022-10-31T03:42:12.476Z,10.07
2022-10-31T03:44:45.525Z,9.65
2022-10-31T03:47:13.349Z,9.77
2022-10-31T03:49:40.712Z,10.00
2022-10-31T03:52:34.170Z,10.25
2022-10-31T03:55:24.845Z,10.13
2022-10-31T03:58:08.985Z,10.30
2022-10-31T04:00:41.444Z,9.63
2022-10-31T04:03:20.241Z,9.80
2022-10-31T04:05:54.640Z,10.50
2022-10-31T04:08:26.914Z,10.23
2022-10-31T04:10:58.663Z,10.18
2022-10-31T04:13:30.132Z,9.82
2022-10-31T04:16:06.688Z,10.38
2022-10-31T04:18:34.261Z,9.65
2022-10-31T04:21:07.042Z,10.27
2022-10-31T04:23:36.272Z,10.48
2022-10-31T04:26:14.490Z,9.88
2022-10-31T04:28:44.750Z,10.13
2022-10-31T04:31:14.087Z,10.40
2022-10-31T04:33:43.743Z,9.38
2022-10-31T04:36:11.063Z,9.50
2022-10-31T04:38:38.560Z,9.43
2022-10-31T04:43:58.903Z,9.32
2022-10-31T04:46:28.190Z,10.00
2022-10-31T04:48:58.088Z,10.05
2022-10-31T04:51:25.512Z,9.52
2022-10-31T04:53:53.212Z,9.60
2022-10-31T04:56:39.287Z,9.68
2022-10-31T04:59:13.199Z,9.50
2022-10-31T05:01:57.025Z,9.43
2022-10-31T05:04:45.807Z,10.07
2022-10-31T05:07:13.260Z,10.35
2022-10-31T05:09:40.784Z,10.73
2022-10-31T05:12:08.102Z,11.15
2022-10-31T05:14:54.203Z,11.57
2022-10-31T05:17:48.160Z,11.57
2022-10-31T05:20:38.406Z,12.30
2022-10-31T05:23:26.449Z,12.20
2022-10-31T05:25:54.731Z,11.20
2022-10-31T05:28:22.012Z,11.65
2022-10-31T05:30:50.631Z,11.95
2022-10-31T05:33:17.942Z,12.02
2022-10-31T05:35:51.003Z,11.98
2022-10-31T05:38:20.998Z,12.50
2022-10-31T05:40:48.923Z,11.82
2022-10-31T05:43:16.587Z,11.85
2022-10-31T05:45:43.790Z,12.73
2022-10-31T05:48:25.352Z,12.82
2022-10-31T05:51:18.918Z,12.88
2022-10-31T05:53:48.450Z,13.20
2022-10-31T05:56:16.086Z,13.82
2022-10-31T05:58:43.982Z,14.20
2022-10-31T06:01:11.328Z,14.25
2022-10-31T06:03:39.091Z,12.73
2022-10-31T06:06:09.712Z,12.57
2022-10-31T06:08:41.263Z,13.13
2022-10-31T06:11:14.581Z,12.63
2022-10-31T06:14:00.793Z,12.68
2022-10-31T06:16:35.922Z,12.13
2022-10-31T06:19:23.307Z,12.98
2022-10-31T06:21:50.570Z,12.02
2022-10-31T06:24:17.796Z,12.90
2022-10-31T06:27:06.199Z,12.40
2022-10-31T06:29:33.721Z,13.30
2022-10-31T06:32:21.529Z,12.15
2022-10-31T06:34:49.391Z,11.52
2022-10-31T06:37:16.918Z,12.93
2022-10-31T06:39:47.341Z,13.60
2022-10-31T06:42:17.447Z,13.65
2022-10-31T06:44:44.894Z,12.40
2022-10-31T06:47:31.025Z,12.35
2022-10-31T06:50:07.800Z,12.48
2022-10-31T06:52:35.665Z,11.98
2022-10-31T06:55:05.372Z,10.73
2022-10-31T06:57:33.919Z,11.88
2022-10-31T07:00:01.250Z,10.90
2022-10-31T07:02:43.605Z,11.50
2022-10-31T07:05:11.174Z,11.40
2022-10-31T07:07:38.732Z,10.50
2022-10-31T07:10:06.157Z,11.63
2022-10-31T07:12:46.595Z,11.43
2022-10-31T07:15:14.475Z,11.65
2022-10-31T07:17:41.764Z,10.90
2022-10-31T07:20:10.332Z,11.23
2022-10-31T07:22:50.499Z,10.40
2022-10-31T07:25:19.638Z,10.80
2022-10-31T07:28:26.615Z,10.35
2022-10-31T07:30:56.475Z,10.85
2022-10-31T07:33:24.554Z,9.82
2022-10-31T07:36:31.188Z,10.32
2022-10-31T07:39:03.458Z,10.05
2022-10-31T07:41:33.305Z,10.48
2022-10-31T07:44:00.857Z,10.50
2022-10-31T07:46:31.030Z,10.23
2022-10-31T07:49:36.936Z,9.13
2022-10-31T07:55:02.506Z,7.85
2022-10-31T07:57:34.459Z,8.13
2022-10-31T08:00:02.464Z,9.88
2022-10-31T08:02:30.578Z,10.45
2022-10-31T08:05:30.517Z,9.43
2022-10-31T08:08:30.298Z,10.15
2022-10-31T08:10:59.417Z,10.98
2022-10-31T08:13:27.224Z,11.20
2022-10-31T08:15:55.473Z,10.88
2022-10-31T08:18:25.892Z,10.95
2022-10-31T08:20:54.831Z,11.38
2022-10-31T08:23:22.419Z,11.38
2022-10-31T08:25:50.137Z,12.38
2022-10-31T08:28:18.266Z,12.13
2022-10-31T08:30:48.410Z,12.63
2022-10-31T08:33:34.520Z,10.32
2022-10-31T08:36:21.478Z,9.05
2022-10-31T08:39:11.437Z,10.52
2022-10-31T08:41:39.923Z,11.00
2022-10-31T08:44:12.126Z,11.07
2022-10-31T08:46:40.515Z,10.60
2022-10-31T08:49:08.143Z,10.95
2022-10-31T08:51:35.524Z,11.18
2022-10-31T08:54:03.192Z,11.60
2022-10-31T08:56:48.944Z,11.23
2022-10-31T08:59:30.134Z,11.45
2022-10-31T09:02:18.663Z,11.98
2022-10-31T09:04:46.024Z,14.98
2022-10-31T09:07:21.415Z,12.18
2022-10-31T09:09:49.381Z,14.73
2022-10-31T09:12:18.172Z,14.18
2022-10-31T09:15:07.333Z,14.75
2022-10-31T09:18:37.616Z,15.18
2022-10-31T09:21:05.304Z,14.55
2022-10-31T09:23:32.977Z,15.18
2022-10-31T09:26:02.757Z,14.25
2022-10-31T09:28:42.556Z,15.85
2022-10-31T09:31:14.454Z,15.77
2022-10-31T09:33:58.829Z,15.88
2022-10-31T09:36:41.574Z,15.35
2022-10-31T09:39:13.498Z,16.20
2022-10-31T09:41:57.139Z,15.98
2022-10-31T09:44:44.894Z,17.92
2022-10-31T09:47:26.750Z,18.05
2022-10-31T09:50:30.843Z,17.73
2022-10-31T09:53:15.984Z,17.17
2022-10-31T09:55:48.701Z,21.75
2022-10-31T09:58:20.345Z,21.77
2022-10-31T10:00:49.668Z,20.42
2022-10-31T10:03:28.045Z,22.10
2022-10-31T10:06:08.750Z,21.80
2022-10-31T10:08:57.011Z,20.98
2022-10-31T10:12:07.543Z,22.50
2022-10-31T10:14:53.478Z,23.38
2022-10-31T10:17:39.356Z,18.63
2022-10-31T10:20:13.674Z,20.90
2022-10-31T10:22:48.071Z,19.20
2022-10-31T10:25:16.830Z,19.13
2022-10-31T10:28:03.104Z,19.63
2022-10-31T10:30:57.554Z,22.88
2022-10-31T10:33:37.737Z,20.60
2022-10-31T10:36:09.759Z,21.50
2022-10-31T10:39:00.480Z,21.13
2022-10-31T10:41:34.434Z,21.95
2022-10-31T10:44:06.542Z,18.45
2022-10-31T10:47:17.427Z,23.00
2022-10-31T10:49:51.750Z,22.48
2022-10-31T10:52:43.430Z,21.73
2022-10-31T10:55:38.210Z,22.58
2022-10-31T10:58:08.872Z,22.98
2022-10-31T11:00:47.348Z,24.27
2022-10-31T11:03:16.422Z,25.10
2022-10-31T11:05:53.583Z,26.15
2022-10-31T11:08:28.271Z,22.85
2022-10-31T11:11:06.067Z,26.13
2022-10-31T11:13:34.769Z,24.65
2022-10-31T11:16:09.097Z,25.17
2022-10-31T11:18:42.434Z,24.65
2022-10-31T11:21:22.965Z,26.95
2022-10-31T11:23:50.510Z,28.02
2022-10-31T11:26:21.816Z,27.75
2022-10-31T11:29:00.021Z,25.45
2022-10-31T11:31:28.515Z,24.98
2022-10-31T11:34:08.211Z,25.52
2022-10-31T11:36:38.621Z,23.80
2022-10-31T11:39:14.838Z,24.13
2022-10-31T11:41:43.579Z,24.48
2022-10-31T11:44:18.520Z,26.70
2022-10-31T11:46:51.381Z,23.35
2022-10-31T11:49:20.382Z,25.00
2022-10-31T11:51:55.435Z,25.23
2022-10-31T11:54:27.710Z,23.75
2022-10-31T11:56:55.314Z,22.48
2022-10-31T11:59:30.976Z,26.30
2022-10-31T12:04:42.299Z,26.98
2022-10-31T12:07:10.037Z,24.40
2022-10-31T12:09:39.295Z,24.77
2022-10-31T12:12:09.740Z,26.25
2022-10-31T12:14:52.144Z,22.05
2022-10-31T12:17:47.001Z,21.13
2022-10-31T12:20:52.082Z,19.42
2022-10-31T12:23:53.730Z,21.42
2022-10-31T12:26:49.901Z,22.48
2022-10-31T12:29:35.399Z,25.08
2022-10-31T12:32:37.572Z,25.88
2022-10-31T12:35:07.709Z,24.30
2022-10-31T12:37:56.278Z,23.30
2022-10-31T12:40:37.954Z,23.55
2022-10-31T12:43:05.144Z,22.95
2022-10-31T12:45:56.871Z,22.08
2022-10-31T12:49:06.148Z,24.95
2022-10-31T12:51:59.185Z,25.13
2022-10-31T12:54:44.170Z,24.92
2022-10-31T12:57:22.669Z,25.30
2022-10-31T13:02:43.461Z,21.05
2022-10-31T13:05:23.117Z,25.70
2022-10-31T13:08:02.947Z,22.77
2022-10-31T13:10:47.532Z,23.55
2022-10-31T13:13:24.189Z,25.67
2022-10-31T13:16:01.731Z,23.67
2022-10-31T13:18:32.937Z,25.25
2022-10-31T13:21:17.542Z,25.20
2022-10-31T13:23:51.537Z,27.40
2022-10-31T13:26:37.594Z,22.83
2022-10-31T13:29:26.879Z,23.38
2022-10-31T13:31:57.576Z,25.25
2022-10-31T13:34:39.479Z,25.85
2022-10-31T13:37:19.048Z,24.83
2022-10-31T13:39:46.530Z,24.88
2022-10-31T13:42:56.343Z,25.23
2022-10-31T13:45:25.872Z,26.15
2022-10-31T13:48:15.230Z,25.05
2022-10-31T13:50:44.570Z,24.77
2022-10-31T13:53:23.352Z,22.60
2022-10-31T13:56:18.838Z,25.20
2022-10-31T13:59:05.376Z,25.02
2022-10-31T14:01:34.264Z,26.70
2022-10-31T14:04:23.915Z,23.65
2022-10-31T14:06:58.314Z,22.02
2022-10-31T14:09:30.700Z,22.33
2022-10-31T14:12:02.624Z,23.63
2022-10-31T14:14:49.859Z,24.35
2022-10-31T14:17:28.614Z,23.33
2022-10-31T14:20:07.426Z,23.85
2022-10-31T14:22:38.718Z,25.58
2022-10-31T14:25:36.216Z,24.38
2022-10-31T14:28:23.499Z,23.08
2022-10-31T14:31:00.614Z,21.83
2022-10-31T14:33:31.953Z,24.15
2022-10-31T14:36:04.227Z,24.02
2022-10-31T14:38:51.693Z,24.08
2022-10-31T14:41:56.849Z,23.95
2022-10-31T14:44:39.216Z,21.95
2022-10-31T14:47:59.948Z,23.20
2022-10-31T14:50:37.897Z,23.83
2022-10-31T14:53:08.546Z,23.55
2022-10-31T14:55:41.148Z,21.63
2022-10-31T14:58:09.117Z,22.55
2022-10-31T15:00:37.157Z,22.02
2022-10-31T15:03:10.248Z,21.85
2022-10-31T15:05:46.146Z,21.77
2022-10-31T15:08:41.051Z,20.60
2022-10-31T15:11:23.096Z,21.73
2022-10-31T15:13:58.600Z,22.38
2022-10-31T15:19:09.013Z,20.10
2022-10-31T15:21:41.029Z,20.58
2022-10-31T15:24:19.587Z,19.92
2022-10-31T15:26:50.769Z,20.40
2022-10-31T15:29:24.899Z,19.80
2022-10-31T15:31:58.127Z,19.98
2022-10-31T15:34:36.696Z,20.08
2022-10-31T15:37:04.262Z,20.42
2022-10-31T15:39:31.562Z,20.38
2022-10-31T15:42:00.500Z,21.13
2022-10-31T15:44:34.627Z,19.45
2022-10-31T15:47:07.640Z,20.90
2022-10-31T15:49:55.306Z,20.15
2022-10-31T15:52:48.032Z,20.38
2022-10-31T15:55:23.443Z,19.45
2022-10-31T15:57:59.789Z,20.37
2022-10-31T16:00:32.798Z,19.80
2022-10-31T16:03:15.253Z,19.67
2022-10-31T16:05:50.182Z,20.08
2022-10-31T16:08:29.511Z,20.25
2022-10-31T16:11:07.315Z,20.30
2022-10-31T16:13:42.107Z,18.88
2022-10-31T16:16:34.700Z,17.93
2022-10-31T16:19:04.989Z,21.92
2022-10-31T16:21:37.215Z,21.95
2022-10-31T16:24:15.179Z,21.58
2022-10-31T16:26:42.843Z,21.23
2022-10-31T16:29:27.425Z,21.63
2022-10-31T16:31:54.951Z,22.08
2022-10-31T16:34:26.672Z,21.52
2022-10-31T16:36:54.462Z,21.85
2022-10-31T16:39:21.875Z,22.15
2022-10-31T16:41:53.357Z,22.08
2022-10-31T16:44:25.013Z,22.52
2022-10-31T16:47:13.392Z,23.60
2022-10-31T16:49:40.795Z,22.10
2022-10-31T16:52:08.123Z,23.60
2022-10-31T16:54:35.616Z,22.35
2022-10-31T16:57:05.482Z,23.02
2022-10-31T16:59:37.260Z,22.67
2022-10-31T17:02:05.745Z,23.27
2022-10-31T17:04:33.297Z,24.38
2022-10-31T17:07:01.189Z,22.63
2022-10-31T17:09:28.491Z,23.80
2022-10-31T17:11:55.777Z,24.92
2022-10-31T17:14:23.664Z,24.58
2022-10-31T17:16:50.946Z,25.13
2022-10-31T17:19:21.200Z,24.75
2022-10-31T17:21:49.188Z,23.00
2022-10-31T17:24:16.497Z,25.48
2022-10-31T17:26:50.676Z,26.35
2022-10-31T17:29:18.576Z,24.77
2022-10-31T17:31:46.281Z,24.50
2022-10-31T17:34:14.396Z,27.70
2022-10-31T17:36:41.936Z,27.63
2022-10-31T17:42:59.290Z,26.85
2022-10-31T17:45:27.395Z,28.75
2022-10-31T17:47:55.080Z,28.48
2022-10-31T17:50:24.393Z,28.25
2022-10-31T17:58:30.711Z,29.02
2022-10-31T18:00:58.799Z,28.23
2022-10-31T18:03:26.842Z,27.88
2022-10-31T18:05:59.234Z,28.70
2022-10-31T18:08:32.116Z,29.15
2022-10-31T18:11:00.629Z,28.70
2022-10-31T18:13:28.967Z,28.48
2022-10-31T18:16:01.999Z,27.17
2022-10-31T18:19:02.680Z,26.58
2022-10-31T18:21:33.371Z,28.50
2022-10-31T18:24:20.965Z,27.42
2022-10-31T18:26:51.253Z,28.63
2022-10-31T18:29:24.178Z,29.55
2022-10-31T18:31:53.533Z,29.98
2022-10-31T18:34:21.098Z,30.40
2022-10-31T18:36:49.494Z,29.63
2022-10-31T18:40:11.204Z,26.75
2022-10-31T18:42:50.610Z,25.75
2022-10-31T18:45:41.197Z,27.02
2022-10-31T18:48:12.521Z,26.45
2022-10-31T18:50:40.415Z,26.92
2022-10-31T18:53:08.132Z,27.92
2022-10-31T18:55:45.430Z,29.55
2022-10-31T18:58:16.994Z,27.80
2022-10-31T19:00:45.825Z,28.85
2022-10-31T19:03:14.555Z,27.40
2022-10-31T19:05:41.908Z,29.17
2022-10-31T19:08:09.497Z,28.33
2022-10-31T19:10:39.164Z,30.98
2022-10-31T19:13:06.877Z,30.42
2022-10-31T19:15:35.767Z,27.80
2022-10-31T19:18:03.499Z,30.25
2022-10-31T19:20:31.484Z,29.27
2022-10-31T19:22:59.189Z,28.83
2022-10-31T19:25:26.647Z,27.83
2022-10-31T19:27:53.906Z,28.58
2022-10-31T19:30:21.520Z,29.15
2022-10-31T19:32:48.821Z,29.73
2022-10-31T19:35:16.410Z,31.30
2022-10-31T19:37:43.760Z,29.85
2022-10-31T19:40:11.580Z,29.05
2022-10-31T19:42:38.783Z,28.85
2022-10-31T19:45:06.493Z,29.30
2022-10-31T19:47:33.857Z,28.55
2022-10-31T19:50:01.071Z,29.15
2022-10-31T19:52:28.353Z,30.10
2022-10-31T19:54:55.719Z,29.75
2022-10-31T19:57:41.974Z,28.95
2022-10-31T20:00:10.897Z,29.98
2022-10-31T20:02:40.831Z,29.48
2022-10-31T20:05:08.678Z,28.70
2022-10-31T20:07:36.029Z,29.73
2022-10-31T20:10:03.431Z,28.20
2022-10-31T20:12:33.702Z,28.25
2022-10-31T20:15:00.961Z,30.48
2022-10-31T20:17:28.244Z,29.15
2022-10-31T20:19:55.561Z,30.00
2022-10-31T20:22:23.830Z,28.92
2022-10-31T20:24:51.088Z,29.27
2022-10-31T20:27:18.346Z,28.73
2022-10-31T20:29:45.553Z,30.05
2022-10-31T20:32:12.813Z,29.02
2022-10-31T20:34:40.111Z,29.00
2022-10-31T20:37:07.661Z,26.77
2022-10-31T20:39:36.693Z,28.08
2022-10-31T20:42:04.894Z,28.35
2022-10-31T20:44:32.246Z,27.58
2022-10-31T20:46:59.545Z,26.30
2022-10-31T20:49:26.811Z,25.80
2022-10-31T20:51:54.034Z,23.75
2022-10-31T20:54:21.369Z,24.90
2022-10-31T20:56:49.227Z,25.00
2022-10-31T20:59:19.346Z,24.95
2022-10-31T21:01:46.684Z,23.23
2022-10-31T21:04:14.028Z,23.77
2022-10-31T21:06:46.566Z,24.45
2022-10-31T21:09:17.772Z,23.97
2022-10-31T21:11:45.081Z,23.63
2022-10-31T21:14:12.628Z,24.92
2022-10-31T21:16:39.939Z,25.77
2022-10-31T21:19:07.869Z,24.52
2022-10-31T21:21:36.829Z,23.70
2022-10-31T21:24:10.986Z,22.73
2022-10-31T21:26:41.825Z,23.95
2022-10-31T21:29:10.752Z,23.58
2022-10-31T21:31:38.920Z,23.40
2022-10-31T21:34:06.818Z,22.95
2022-10-31T21:36:34.769Z,24.77
2022-10-31T21:39:02.425Z,23.65
2022-10-31T21:41:29.864Z,24.38
2022-10-31T21:43:57.423Z,23.60
2022-10-31T21:46:27.137Z,22.85
2022-10-31T21:48:56.128Z,22.90
2022-10-31T21:51:26.270Z,24.55
2022-10-31T21:54:12.808Z,23.92
2022-10-31T21:59:07.469Z,23.85
2022-10-31T22:01:35.824Z,23.33
2022-10-31T22:04:04.150Z,22.92
2022-10-31T22:06:32.233Z,23.08
2022-10-31T22:09:01.776Z,22.77
2022-10-31T22:11:29.637Z,21.63
2022-10-31T22:14:00.619Z,24.70
2022-10-31T22:16:30.024Z,24.30
2022-10-31T22:18:59.355Z,23.45
2022-10-31T22:21:49.229Z,22.52
2022-10-31T22:24:17.878Z,22.58
2022-10-31T22:26:45.353Z,22.13
2022-10-31T22:29:15.745Z,21.38
2022-10-31T22:31:45.576Z,21.55
2022-10-31T22:34:14.803Z,20.38
2022-10-31T22:40:28.508Z,20.00
2022-10-31T22:46:06.299Z,19.57
2022-10-31T22:49:23.480Z,19.13
2022-10-31T22:52:16.182Z,19.50
2022-10-31T22:54:43.688Z,18.58
2022-10-31T22:57:17.365Z,18.83
2022-10-31T23:00:10.225Z,17.08
2022-10-31T23:02:38.533Z,16.48
2022-10-31T23:05:09.017Z,16.90
2022-10-31T23:07:36.263Z,16.40
2022-10-31T23:10:03.766Z,16.35
2022-10-31T23:12:49.508Z,15.63
2022-10-31T23:15:16.898Z,15.33
2022-10-31T23:17:44.152Z,16.20
2022-10-31T23:20:11.401Z,17.60
2022-10-31T23:22:38.681Z,16.80
2022-10-31T23:25:06.158Z,16.90
2022-10-31T23:27:33.407Z,16.77
2022-10-31T23:30:01.332Z,17.65
2022-10-31T23:32:29.764Z,19.65
2022-10-31T23:35:02.086Z,20.30
2022-10-31T23:37:31.932Z,21.02
2022-10-31T23:40:00.007Z,22.25
2022-10-31T23:42:28.160Z,20.23
2022-10-31T23:44:55.980Z,20.65
2022-10-31T23:47:23.743Z,19.92
2022-10-31T23:49:51.071Z,20.05
2022-10-31T23:52:18.913Z,19.80
2022-10-31T23:54:46.161Z,20.05
2022-10-31T23:57:15.227Z,19.73
2022-10-31T23:59:42.863Z,19.65
